< < Back
Terminal Aerodrome Forecast


Current Version              Previous Versions:   1  2  3  4  5  6  7  8  9  

Terminal Aerodrome Forecast

332
FTUS44 KHUN 031543 AAC
TAFHSV
TAF AMD
KHSV 031543Z 0316/0412 24011G18KT P6SM VCTS SCT025CB OVC050
      TEMPO 0317/0321 4SM SHRA BR BKN025 OVC050
     FM040200 21009KT P6SM VCSH OVC030
      TEMPO 0408/0412 6SM -SHRA BKN015 OVC030=



Latest METAR

034
SAUS80 KWBC 031500 RRA
MTRHSV
METAR KHSV 031453Z COR 23010KT 10SM -RA FEW017 SCT047 OVC100 23/22 A2998
RMK AO2 SLP144 P0003 60109 T02280217 50012 $


USA.gov is the U.S. government's official web portal to all federal, state and local government web resources and services.